Time,TemperatureF,DewpointF,PressureIn,WindDirection,WindDirectionDegrees,WindSpeedMPH,WindSpeedGustMPH,Humidity,HourlyPrecipIn,Conditions,Clouds,dailyrainin,SoftwareType,DateUTC
2013-05-26 00:05:00,54.5,53.9,29.91,SSW,202,1.1,-999.0,98,-99.99,,,0.00,Acu-Link.com,2013-05-26 07:05:00,
2013-05-26 00:20:00,54.5,53.9,29.92,SSW,202,2.2,-999.0,98,-99.99,,,0.00,Acu-Link.com,2013-05-26 07:20:00,
2013-05-26 00:35:00,54.9,54.3,29.91,NNW,337,0.0,-999.0,98,-99.99,,,0.00,Acu-Link.com,2013-05-26 07:35:00,
2013-05-26 00:51:00,55.0,54.4,29.91,WNW,292,0.0,-999.0,98,-99.99,,,0.00,Acu-Link.com,2013-05-26 07:51:00,
2013-05-26 01:06:00,55.4,54.8,29.91,WNW,292,0.0,-999.0,98,-99.99,,,0.00,Acu-Link.com,2013-05-26 08:06:00,
2013-05-26 01:22:00,55.2,54.6,29.92,ENE,67,3.2,-999.0,98,-99.99,,,0.00,Acu-Link.com,2013-05-26 08:22:00,
2013-05-26 01:37:00,55.2,54.6,29.91,SSW,202,1.7,-999.0,98,-99.99,,,0.00,Acu-Link.com,2013-05-26 08:37:00,
2013-05-26 01:52:00,55.0,54.4,29.92,East,90,0.0,-999.0,98,-99.99,,,0.00,Acu-Link.com,2013-05-26 08:52:00,
2013-05-26 02:07:00,54.9,54.3,29.91,SW,225,2.2,-999.0,98,-99.99,,,0.01,Acu-Link.com,2013-05-26 09:07:00,
2013-05-26 02:22:00,54.7,54.1,29.91,South,180,0.0,-999.0,98,-99.99,,,0.01,Acu-Link.com,2013-05-26 09:22:00,
2013-05-26 02:37:00,54.3,53.7,29.91,SSE,157,0.0,-999.0,98,-99.99,,,0.01,Acu-Link.com,2013-05-26 09:37:00,
2013-05-26 02:52:00,54.0,53.4,29.90,SSE,157,1.1,-999.0,98,-99.99,,,0.01,Acu-Link.com,2013-05-26 09:52:00,
2013-05-26 03:08:00,54.0,53.4,29.91,NE,45,1.7,-999.0,98,-99.99,,,0.01,Acu-Link.com,2013-05-26 10:08:00,
2013-05-26 03:23:00,53.8,53.2,29.90,South,180,0.0,-999.0,98,-99.99,,,0.01,Acu-Link.com,2013-05-26 10:23:00,
2013-05-26 03:38:00,53.8,53.2,29.90,West,270,0.0,-999.0,98,-99.99,,,0.02,Acu-Link.com,2013-05-26 10:38:00,
2013-05-26 03:53:00,53.6,53.0,29.90,NNE,22,0.0,-999.0,98,-99.99,,,0.02,Acu-Link.com,2013-05-26 10:53:00,
2013-05-26 04:09:00,53.6,53.0,29.90,SSE,157,0.0,-999.0,98,-99.99,,,0.02,Acu-Link.com,2013-05-26 11:09:00,
2013-05-26 04:24:00,53.4,52.8,29.90,NNE,22,0.0,-999.0,98,-99.99,,,0.03,Acu-Link.com,2013-05-26 11:24:00,
2013-05-26 04:39:00,53.4,52.8,29.91,East,90,0.0,-999.0,98,-99.99,,,0.03,Acu-Link.com,2013-05-26 11:39:00,
2013-05-26 04:54:00,53.4,52.8,29.89,East,90,0.0,-999.0,98,-99.99,,,0.03,Acu-Link.com,2013-05-26 11:54:00,
2013-05-26 05:10:00,53.4,52.8,29.90,South,180,0.0,-999.0,98,-99.99,,,0.04,Acu-Link.com,2013-05-26 12:10:00,
2013-05-26 05:25:00,53.6,53.0,29.91,West,270,0.0,-999.0,98,-99.99,,,0.05,Acu-Link.com,2013-05-26 12:25:00,
2013-05-26 05:40:00,53.4,52.8,29.90,SSW,202,0.0,-999.0,98,-99.99,,,0.05,Acu-Link.com,2013-05-26 12:40:00,
2013-05-26 05:56:00,53.4,52.8,29.91,SSW,202,0.0,-999.0,98,-99.99,,,0.06,Acu-Link.com,2013-05-26 12:56:00,
2013-05-26 06:11:00,53.6,53.0,29.91,SSW,202,0.0,-999.0,98,-99.99,,,0.06,Acu-Link.com,2013-05-26 13:11:00,
2013-05-26 06:26:00,53.8,53.2,29.91,NE,45,0.0,-999.0,98,-99.99,,,0.07,Acu-Link.com,2013-05-26 13:26:00,
2013-05-26 06:42:00,54.1,53.5,29.91,NE,45,0.0,-999.0,98,-99.99,,,0.08,Acu-Link.com,2013-05-26 13:42:00,
2013-05-26 06:57:00,54.5,53.9,29.91,East,90,0.0,-999.0,98,-99.99,,,0.10,Acu-Link.com,2013-05-26 13:57:00,
2013-05-26 07:12:00,54.9,54.3,29.91,North,0,0.0,-999.0,98,-99.99,,,0.10,Acu-Link.com,2013-05-26 14:12:00,
2013-05-26 07:27:00,55.2,54.6,29.92,East,90,2.7,-999.0,98,-99.99,,,0.11,Acu-Link.com,2013-05-26 14:27:00,
2013-05-26 07:42:00,54.9,54.3,29.91,East,90,2.7,-999.0,98,-99.99,,,0.11,Acu-Link.com,2013-05-26 14:42:00,
2013-05-26 07:57:00,55.0,54.4,29.93,East,90,2.7,-999.0,98,-99.99,,,0.11,Acu-Link.com,2013-05-26 14:57:00,
2013-05-26 08:13:00,55.0,54.4,29.92,East,90,2.7,-999.0,98,-99.99,,,0.11,Acu-Link.com,2013-05-26 15:13:00,
2013-05-26 08:28:00,55.4,54.8,29.92,ESE,112,0.0,-999.0,98,-99.99,,,0.12,Acu-Link.com,2013-05-26 15:28:00,
2013-05-26 08:43:00,55.4,54.8,29.92,East,90,0.0,-999.0,98,-99.99,,,0.14,Acu-Link.com,2013-05-26 15:43:00,
2013-05-26 08:58:00,55.6,55.0,29.92,East,90,3.2,-999.0,98,-99.99,,,0.14,Acu-Link.com,2013-05-26 15:58:00,
2013-05-26 09:14:00,55.8,55.2,29.92,ENE,67,3.2,-999.0,98,-99.99,,,0.15,Acu-Link.com,2013-05-26 16:14:00,
2013-05-26 09:29:00,55.9,55.3,29.92,East,90,3.2,-999.0,98,-99.99,,,0.15,Acu-Link.com,2013-05-26 16:29:00,
2013-05-26 09:44:00,55.8,55.2,29.92,ENE,67,2.7,-999.0,98,-99.99,,,0.16,Acu-Link.com,2013-05-26 16:44:00,
2013-05-26 09:59:00,56.5,55.9,29.92,East,90,2.7,-999.0,98,-99.99,,,0.16,Acu-Link.com,2013-05-26 16:59:00,
2013-05-26 10:14:00,57.0,56.4,29.91,East,90,3.7,-999.0,98,-99.99,,,0.16,Acu-Link.com,2013-05-26 17:14:00,
2013-05-26 10:29:00,57.0,56.4,29.93,ESE,112,2.2,-999.0,98,-99.99,,,0.16,Acu-Link.com,2013-05-26 17:29:00,
2013-05-26 10:44:00,56.7,56.1,29.92,ENE,67,4.2,-999.0,98,-99.99,,,0.16,Acu-Link.com,2013-05-26 17:44:00,
2013-05-26 11:00:00,56.7,56.1,29.91,East,90,2.2,-999.0,98,-99.99,,,0.16,Acu-Link.com,2013-05-26 18:00:00,
2013-05-26 11:15:00,57.2,56.6,29.90,East,90,3.7,-999.0,98,-99.99,,,0.16,Acu-Link.com,2013-05-26 18:15:00,
2013-05-26 11:30:00,57.2,56.6,29.91,NE,45,2.2,-999.0,98,-99.99,,,0.16,Acu-Link.com,2013-05-26 18:30:00,
2013-05-26 11:45:00,57.4,56.8,29.91,ENE,67,2.2,-999.0,98,-99.99,,,0.16,Acu-Link.com,2013-05-26 18:45:00,
2013-05-26 12:00:00,57.6,57.0,29.92,West,270,6.3,-999.0,98,-99.99,,,0.16,Acu-Link.com,2013-05-26 19:00:00,
2013-05-26 12:16:00,56.8,56.2,29.91,West,270,3.7,-999.0,98,-99.99,,,0.16,Acu-Link.com,2013-05-26 19:16:00,
2013-05-26 12:31:00,56.3,55.7,29.91,West,270,3.7,-999.0,98,-99.99,,,0.16,Acu-Link.com,2013-05-26 19:31:00,
2013-05-26 12:46:00,56.1,55.5,29.93,West,270,4.2,-999.0,98,-99.99,,,0.16,Acu-Link.com,2013-05-26 19:46:00,
2013-05-26 13:01:00,57.4,56.8,29.92,West,270,4.2,-999.0,98,-99.99,,,0.16,Acu-Link.com,2013-05-26 20:01:00,
2013-05-26 13:16:00,58.5,57.9,29.92,WNW,292,2.7,-999.0,98,-99.99,,,0.16,Acu-Link.com,2013-05-26 20:16:00,
2013-05-26 13:33:00,57.9,57.3,29.91,NE,45,0.0,-999.0,98,-99.99,,,0.16,Acu-Link.com,2013-05-26 20:33:00,
2013-05-26 13:48:00,58.6,58.0,29.90,East,90,4.2,-999.0,98,-99.99,,,0.16,Acu-Link.com,2013-05-26 20:48:00,
2013-05-26 14:03:00,59.0,58.4,29.90,ENE,67,2.7,-999.0,98,-99.99,,,0.16,Acu-Link.com,2013-05-26 21:03:00,
2013-05-26 14:18:00,61.2,60.6,29.89,West,270,7.8,-999.0,98,-99.99,,,0.16,Acu-Link.com,2013-05-26 21:18:00,
2013-05-26 14:33:00,61.7,61.1,29.90,West,270,6.3,-999.0,98,-99.99,,,0.16,Acu-Link.com,2013-05-26 21:33:00,
2013-05-26 14:49:00,61.9,61.3,29.90,West,270,8.3,-999.0,98,-99.99,,,0.16,Acu-Link.com,2013-05-26 21:49:00,
2013-05-26 15:04:00,61.7,61.1,29.89,West,270,6.8,-999.0,98,-99.99,,,0.16,Acu-Link.com,2013-05-26 22:04:00,
2013-05-26 15:19:00,61.7,61.1,29.90,West,270,8.3,-999.0,98,-99.99,,,0.16,Acu-Link.com,2013-05-26 22:19:00,
2013-05-26 15:35:00,62.4,61.8,29.88,West,270,4.7,-999.0,98,-99.99,,,0.16,Acu-Link.com,2013-05-26 22:35:00,
2013-05-26 15:50:00,64.9,64.3,29.88,WNW,292,6.3,-999.0,98,-99.99,,,0.16,Acu-Link.com,2013-05-26 22:50:00,
2013-05-26 16:05:00,66.0,63.6,29.88,West,270,7.8,-999.0,92,-99.99,,,0.16,Acu-Link.com,2013-05-26 23:05:00,
2013-05-26 16:20:00,65.5,61.5,29.90,WNW,292,3.7,-999.0,87,-99.99,,,0.16,Acu-Link.com,2013-05-26 23:20:00,
2013-05-26 16:35:00,65.1,62.1,29.87,West,270,6.8,-999.0,90,-99.99,,,0.16,Acu-Link.com,2013-05-26 23:35:00,
2013-05-26 16:50:00,63.7,61.0,29.87,West,270,6.3,-999.0,91,-99.99,,,0.16,Acu-Link.com,2013-05-26 23:50:00,
2013-05-26 17:06:00,62.8,61.9,29.89,NE,45,2.7,-999.0,97,-99.99,,,0.16,Acu-Link.com,2013-05-27 00:06:00,
2013-05-26 17:21:00,62.8,61.6,29.88,WNW,292,6.3,-999.0,96,-99.99,,,0.16,Acu-Link.com,2013-05-27 00:21:00,
2013-05-26 17:36:00,62.4,61.5,29.88,West,270,3.2,-999.0,97,-99.99,,,0.16,Acu-Link.com,2013-05-27 00:36:00,
2013-05-26 17:51:00,64.6,63.1,29.89,SSE,157,3.2,-999.0,95,-99.99,,,0.16,Acu-Link.com,2013-05-27 00:51:00,
2013-05-26 18:06:00,63.9,62.7,29.88,West,270,4.7,-999.0,96,-99.99,,,0.16,Acu-Link.com,2013-05-27 01:06:00,
2013-05-26 18:22:00,62.6,61.1,29.87,WNW,292,3.7,-999.0,95,-99.99,,,0.16,Acu-Link.com,2013-05-27 01:22:00,
2013-05-26 18:37:00,61.9,61.3,29.86,East,90,2.7,-999.0,98,-99.99,,,0.16,Acu-Link.com,2013-05-27 01:37:00,
2013-05-26 18:52:00,61.5,60.9,29.88,West,270,6.3,-999.0,98,-99.99,,,0.16,Acu-Link.com,2013-05-27 01:52:00,
2013-05-26 19:07:00,62.6,62.0,29.87,East,90,5.8,-999.0,98,-99.99,,,0.16,Acu-Link.com,2013-05-27 02:07:00,
2013-05-26 19:23:00,64.4,62.6,29.87,West,270,5.3,-999.0,94,-99.99,,,0.16,Acu-Link.com,2013-05-27 02:23:00,
2013-05-26 19:39:00,63.3,61.2,29.88,ESE,112,2.2,-999.0,93,-99.99,,,0.16,Acu-Link.com,2013-05-27 02:39:00,
2013-05-26 21:17:00,56.7,56.1,29.88,West,270,4.7,-999.0,98,-99.99,,,0.16,Acu-Link.com,2013-05-27 04:17:00,
2013-05-26 21:32:00,56.3,55.7,29.89,NNE,22,3.2,-999.0,98,-99.99,,,0.16,Acu-Link.com,2013-05-27 04:32:00,
2013-05-26 21:47:00,55.9,55.3,29.88,West,270,3.2,-999.0,98,-99.99,,,0.16,Acu-Link.com,2013-05-27 04:47:00,
2013-05-26 22:02:00,55.6,55.0,29.88,West,270,5.3,-999.0,98,-99.99,,,0.16,Acu-Link.com,2013-05-27 05:02:00,
2013-05-26 22:18:00,55.8,55.2,29.88,West,270,7.8,-999.0,98,-99.99,,,0.16,Acu-Link.com,2013-05-27 05:18:00,
2013-05-26 22:33:00,55.6,55.0,29.89,WNW,292,1.7,-999.0,98,-99.99,,,0.16,Acu-Link.com,2013-05-27 05:33:00,
2013-05-26 22:48:00,55.6,55.0,29.90,SW,225,6.3,-999.0,98,-99.99,,,0.16,Acu-Link.com,2013-05-27 05:48:00,
2013-05-26 23:04:00,55.2,54.6,29.90,West,270,2.2,-999.0,98,-99.99,,,0.16,Acu-Link.com,2013-05-27 06:04:00,
2013-05-26 23:19:00,54.3,53.7,29.88,SSW,202,0.0,-999.0,98,-99.99,,,0.16,Acu-Link.com,2013-05-27 06:19:00,
2013-05-26 23:34:00,53.6,53.0,29.88,South,180,2.2,-999.0,98,-99.99,,,0.16,Acu-Link.com,2013-05-27 06:34:00,
2013-05-26 23:50:00,53.8,53.2,29.88,NE,45,2.7,-999.0,98,-99.99,,,0.16,Acu-Link.com,2013-05-27 06:50:00,